METAR AND TAF INFORMATION
METAR FOR EDDS
ADDS - METARS form results

(0438 UTC 12 July 2020)
Data provider http://aviationweather.gov/metar/data/
 
METAR text: EDDS 120420Z VRB01KT CAVOK 11/07 Q1025 NOSIG
Conditions at: EDDS (STUTTGART/ECHTER, DE) observed 0420 UTC 12 July 2020
Temperature: 11.0°C (52°F)
Dewpoint: 7.0°C (45°F) [RH = 76%]
Pressure (altimeter): 30.27 inches Hg (1025.0 mb)
Winds: variable direction winds at 1 MPH (1 knots; 0.5 m/s)
Visibility: 6 or more miles (10+ km)
Ceiling: ceiling and visibility are OK
Clouds: unknown
Weather: no significant weather observed at this time

METAR text: EDDS 120350Z 00000KT CAVOK 09/07 Q1025
Conditions at: EDDS (STUTTGART/ECHTER, DE) observed 0350 UTC 12 July 2020
Temperature: 9.0°C (48°F)
Dewpoint: 7.0°C (45°F) [RH = 87%]
Pressure (altimeter): 30.27 inches Hg (1025.0 mb)
Winds: calm
Visibility: 6 or more miles (10+ km)
Ceiling: ceiling and visibility are OK
Clouds: unknown
Weather: no significant weather observed at this time

Forecast for: EDDS (STUTTGART/ECHTER, DE)
Text: TAF EDDS 112300Z 1200/1224 34003KT CAVOK
Forecast period: 0000 to 0600 UTC 12 July 2020
Forecast type: FROM: standard forecast or significant change
Winds: from the NNW (340 degrees) at 3 MPH (3 knots; 1.5 m/s)
Visibility: 6 or more miles 10+ km)
Ceiling: unknown
Clouds: missing
Weather: NSW  (no significant weather)
Text: BECMG 1206/1208 06007KT
Forecast period: 0600 UTC 12 July 2020 to 0000 UTC 13 July 2020
Forecast type: BECOMING: Conditions expected to become as follows by 0800 UTC 12 July 2020
Winds: from the ENE (60 degrees) at 8 MPH (7 knots; 3.6 m/s)
Visibility: 6 or more miles 10+ km)
Ceiling: unknown
Clouds: missing
Weather: NSW  (no significant weather)

 AIRPORT MAP

 RUNWAY INFORMATION
Runway 07 Runway length 10974 ft Runway width 148 ft
Runway elevation 1267 ft Runway displaced threshold 984 ft Runway heading 74
Runway 25 Runway length 10974 ft Runway width 148 ft
Runway elevation 1181 ft Runway displaced threshold 0 ft Runway heading 254

 AIRPORT FREQUENCIES
Type ATIS Name ATIS Frequency 126.125 MHZ
Type CLD Name CLNC DEL Frequency 121.9 MHZ
Type DIR Name DIR Frequency 119.85 MHZ
Type GND Name GND Frequency 118.6 MHZ
Type INFO Name LANGEN INF Frequency 128.95 MHZ
Type MISC Name DEICING Frequency 136.825 MHZ
Type PTD Name BASE OPS P Frequency 31.8 MHZ
Type RDR Name LANGEN RAD Frequency 119.2 MHZ
Type RMP Name APRON Frequency 121.7 MHZ
Type TWR Name TWR Frequency 118.8 MHZ

 AIRPORT NEAR NAVIGATION AIDS
Type VOR-DME Name Luburg Frequency 109200 KHZ
Type NDB Name Stuttgart Frequency 306 KHZ
Type DME Name Stuttgart Frequency 115450 KHZ
Type NDB Name Stuttgart Frequency 384 KHZ



Datenschutz / Privacy Policy • Impressum / Imprint • Disclaimer

Powered by Virtual Airlines Manager [v2.6.2]